Time;durP1;ratioP1;P1;durP2;ratioP2;P2;SDS_P1;SDS_P2;PMS_P1;PMS_P2;Temp;Humidity;BMP_temperature;BMP_pressure;BME280_temperature;BME280_humidity;BME280_pressure;Samples;Min_cycle;Max_cycle;Signal;HPM_P1;HPM_P2
2022/06/07 00:02:28;;;;;;;;;;;;;;;17.80;64.00;100776.66;5022471;28;19924;-86
2022/06/07 00:04:54;;;;;;;;;;;;;;;17.76;64.28;100775.41;5004274;28;19929;-85
2022/06/07 00:07:22;;;;;;;;;;;;;;;17.73;64.07;100782.91;5010141;28;19925;-87
2022/06/07 00:09:53;;;;;;;;;;;;;;;17.70;64.31;100782.50;5001501;28;19960;-85
2022/06/07 00:12:21;;;;;;;;;;;;;;;17.84;63.96;100784.25;5022444;28;20442;-88
2022/06/07 00:14:47;;;;;;;;;;;;;;;17.90;64.15;100788.00;5014334;28;20392;-88
2022/06/07 00:17:12;;;;;;;;;;;;;;;17.89;64.05;100787.19;5026088;28;20234;-86
2022/06/07 00:19:41;;;;;;;;;;;;;;;17.97;63.54;100777.97;4991416;28;19913;-86
2022/06/07 00:22:06;;;;;;;;;;;;;;;17.92;63.72;100786.75;4995921;28;20366;-88
2022/06/07 00:24:35;;;;;;;;;;;;;;;17.92;64.73;100784.03;4997176;28;19914;-86
2022/06/07 00:27:00;;;;;;;;;;;;;;;17.88;64.47;100780.03;5006944;28;19928;-86
2022/06/07 00:29:31;;;;;;;;;;;;;;;17.85;64.23;100776.91;5013132;28;19943;-86
2022/06/07 00:31:56;;;;;;;;;;;;;;;17.96;64.45;100779.03;4993288;28;19983;-85
2022/06/07 00:34:23;;;;;;;;;;;;;;;17.94;64.28;100772.97;5002112;28;20425;-84
2022/06/07 00:36:49;;;;;;;;;;;;;;;18.08;63.44;100773.81;4999668;28;20007;-86
2022/06/07 00:39:18;;;;;;;;;;;;;;;17.97;63.70;100771.72;5012929;28;19914;-85
2022/06/07 00:41:44;;;;;;;;;;;;;;;18.03;63.35;100765.44;4990648;28;19921;-87
2022/06/07 00:44:27;;;;;;;;;;;;;;;17.99;63.80;100761.47;5016117;28;19917;-85
2022/06/07 00:47:00;;;;;;;;;;;;;;;17.96;63.93;100760.00;4988892;28;19914;-85
2022/06/07 00:49:26;;;;;;;;;;;;;;;17.92;63.79;100758.72;5010366;28;19920;-86
2022/06/07 00:51:52;;;;;;;;;;;;;;;17.86;64.02;100763.13;5016810;28;19976;-84
2022/06/07 00:54:27;;;;;;;;;;;;;;;17.90;63.89;100767.09;5016154;28;20024;-84
2022/06/07 00:56:53;;;;;;;;;;;;;;;17.94;64.24;100759.34;5024748;28;19917;-85
2022/06/07 00:59:22;;;;;;;;;;;;;;;18.01;63.77;100759.38;5019004;28;19929;-85
2022/06/07 01:01:50;;;;;;;;;;;;;;;17.97;63.76;100763.53;5007417;28;19921;-84
2022/06/07 01:04:16;;;;;;;;;;;;;;;17.97;63.79;100758.09;5007675;28;19920;-84
2022/06/07 01:12:10;;;;;;;;;;;;;;;17.89;63.85;100748.28;5022099;28;19967;-85
2022/06/07 01:14:36;;;;;;;;;;;;;;;17.90;63.84;100758.94;5012642;28;19917;-84
2022/06/07 01:17:03;;;;;;;;;;;;;;;17.98;63.68;100751.59;5011562;28;20075;-85
2022/06/07 01:19:31;;;;;;;;;;;;;;;17.91;63.60;100736.13;5011431;28;19913;-85
2022/06/07 01:21:57;;;;;;;;;;;;;;;17.90;63.42;100742.59;5026696;28;19909;-85
2022/06/07 01:24:23;;;;;;;;;;;;;;;17.84;63.39;100748.88;5012368;28;19920;-85
2022/06/07 01:26:48;;;;;;;;;;;;;;;17.89;63.70;100751.81;5013588;28;19933;-85
2022/06/07 01:29:16;;;;;;;;;;;;;;;17.92;63.37;100761.44;5011074;28;19956;-85
2022/06/07 01:31:44;;;;;;;;;;;;;;;17.92;63.37;100756.84;5002447;28;20378;-85
2022/06/07 01:34:10;;;;;;;;;;;;;;;17.98;63.33;100762.50;4984729;28;19915;-85
2022/06/07 01:36:35;;;;;;;;;;;;;;;17.90;62.90;100772.53;5004181;28;19987;-84
2022/06/07 01:41:55;;;;;;;;;;;;;;;18.04;62.79;100778.00;5021387;28;19956;-84
2022/06/07 01:44:23;;;;;;;;;;;;;;;18.05;62.73;100779.66;5012043;28;20000;-84
2022/06/07 01:46:50;;;;;;;;;;;;;;;18.06;62.42;100771.28;5014618;28;19928;-84
2022/06/07 01:49:16;;;;;;;;;;;;;;;18.04;62.87;100772.56;5018635;28;19914;-84
2022/06/07 01:51:44;;;;;;;;;;;;;;;18.04;62.74;100775.28;5010693;28;20465;-84
2022/06/07 01:54:10;;;;;;;;;;;;;;;18.06;63.09;100775.91;5005428;28;20313;-84
2022/06/07 01:56:39;;;;;;;;;;;;;;;18.07;62.69;100777.56;4999267;28;20430;-84
2022/06/07 01:59:05;;;;;;;;;;;;;;;18.03;63.03;100770.88;5015168;28;19920;-84
2022/06/07 02:01:30;;;;;;;;;;;;;;;18.08;62.89;100774.66;5013763;28;19917;-84
2022/06/07 02:03:56;;;;;;;;;;;;;;;18.10;63.19;100772.56;5014783;28;19917;-84
2022/06/07 02:06:22;;;;;;;;;;;;;;;18.18;63.21;100770.69;5016681;28;19921;-85
2022/06/07 02:08:49;;;;;;;;;;;;;;;18.21;62.79;100779.25;5012913;28;19921;-85
2022/06/07 02:11:15;;;;;;;;;;;;;;;18.21;62.45;100776.53;4997574;28;20329;-84
2022/06/07 02:13:41;;;;;;;;;;;;;;;18.24;62.64;100787.03;5027147;28;19897;-84
2022/06/07 02:16:06;;;;;;;;;;;;;;;18.14;62.98;100778.41;5011360;28;19983;-85
2022/06/07 02:18:33;;;;;;;;;;;;;;;18.18;62.91;100784.28;5012492;28;19976;-86
2022/06/07 02:21:00;;;;;;;;;;;;;;;18.18;62.70;100790.56;5001511;28;19925;-86
2022/06/07 02:23:29;;;;;;;;;;;;;;;17.90;63.69;100788.84;5016142;28;19913;-85
2022/06/07 02:25:56;;;;;;;;;;;;;;;18.10;63.13;100793.50;4997662;28;19968;-85
2022/06/07 02:28:23;;;;;;;;;;;;;;;18.00;63.55;100788.44;5015082;28;19978;-85
2022/06/07 02:30:49;;;;;;;;;;;;;;;18.08;63.40;100787.44;4995502;28;19929;-85
2022/06/07 02:33:16;;;;;;;;;;;;;;;18.14;63.35;100789.28;5015214;28;19949;-86
2022/06/07 02:35:41;;;;;;;;;;;;;;;18.14;63.33;100789.28;5013901;28;20382;-85
2022/06/07 02:38:08;;;;;;;;;;;;;;;18.18;63.26;100785.13;5020236;28;19928;-84
2022/06/07 02:40:34;;;;;;;;;;;;;;;18.30;62.79;100786.16;5008863;28;19917;-85
2022/06/07 02:43:01;;;;;;;;;;;;;;;18.22;63.42;100777.41;5008396;28;19909;-84
2022/06/07 02:45:28;;;;;;;;;;;;;;;18.21;63.21;100768.38;4996407;28;20340;-84
2022/06/07 02:47:53;;;;;;;;;;;;;;;18.33;62.91;100768.59;5013695;28;19997;-84
2022/06/07 02:50:20;;;;;;;;;;;;;;;18.33;63.15;100768.59;5014124;28;19957;-85
2022/06/07 02:52:48;;;;;;;;;;;;;;;18.40;63.04;100760.41;5014598;28;19921;-85
2022/06/07 02:55:15;;;;;;;;;;;;;;;18.46;62.71;100767.75;5014984;28;19913;-85
2022/06/07 02:57:41;;;;;;;;;;;;;;;18.47;62.53;100774.88;5007176;28;19913;-84
2022/06/07 03:00:08;;;;;;;;;;;;;;;18.46;62.51;100770.47;5001588;28;19921;-85
2022/06/07 03:02:34;;;;;;;;;;;;;;;18.47;62.93;100778.44;5014685;28;19909;-85
2022/06/07 03:04:59;;;;;;;;;;;;;;;18.58;62.58;100784.28;5001727;28;19974;-85
2022/06/07 03:07:26;;;;;;;;;;;;;;;18.58;62.27;100776.94;5007559;28;20015;-85
2022/06/07 03:09:55;;;;;;;;;;;;;;;18.63;62.37;100779.03;5014656;28;20378;-85
2022/06/07 03:12:21;;;;;;;;;;;;;;;18.64;61.64;100767.13;5013227;28;19940;-85
2022/06/07 03:14:47;;;;;;;;;;;;;;;18.61;62.18;100762.91;5016712;28;19921;-85
2022/06/07 03:17:15;;;;;;;;;;;;;;;18.69;62.17;100753.69;5014088;28;19928;-85
2022/06/07 03:19:44;;;;;;;;;;;;;;;18.76;62.06;100749.06;5013141;28;20000;-84
2022/06/07 03:22:14;;;;;;;;;;;;;;;18.79;62.31;100750.56;5013244;28;19922;-84
2022/06/07 03:24:41;;;;;;;;;;;;;;;18.65;62.47;100747.00;5021691;28;19921;-84
2022/06/07 03:27:08;;;;;;;;;;;;;;;18.75;62.26;100752.84;5015154;28;20350;-83
2022/06/07 03:29:35;;;;;;;;;;;;;;;18.87;62.03;100762.09;5011485;28;20031;-84
2022/06/07 03:32:00;;;;;;;;;;;;;;;18.94;61.57;100762.03;5004272;28;20362;-84
2022/06/07 03:34:29;;;;;;;;;;;;;;;18.90;61.51;100774.44;5004747;28;19924;-84
2022/06/07 03:36:55;;;;;;;;;;;;;;;19.05;61.13;100775.00;5004321;28;20361;-83
2022/06/07 03:39:22;;;;;;;;;;;;;;;19.06;61.11;100779.44;5011253;28;19974;-82
2022/06/07 03:41:47;;;;;;;;;;;;;;;19.09;61.30;100775.44;4987376;28;20004;-86
2022/06/07 03:44:13;;;;;;;;;;;;;;;18.96;61.45;100789.91;4979919;28;20003;-85
2022/06/07 03:46:42;;;;;;;;;;;;;;;18.80;62.04;100793.09;5002848;28;19921;-84
2022/06/07 03:49:20;;;;;;;;;;;;;;;18.77;62.32;100781.56;4997273;28;19913;-84
2022/06/07 03:51:48;;;;;;;;;;;;;;;18.84;62.31;100772.56;5006004;28;19928;-83
2022/06/07 03:54:14;;;;;;;;;;;;;;;18.88;61.92;100773.81;5001918;28;20012;-84
2022/06/07 03:56:39;;;;;;;;;;;;;;;18.82;62.05;100761.84;4997727;28;20031;-84
2022/06/07 03:59:04;;;;;;;;;;;;;;;18.88;61.56;100757.47;4987843;28;19932;-86
2022/06/07 04:01:30;;;;;;;;;;;;;;;19.03;61.31;100760.75;4991464;28;19925;-85
2022/06/07 04:04:05;;;;;;;;;;;;;;;18.99;60.89;100764.97;5006913;28;19985;-84
2022/06/07 04:06:33;;;;;;;;;;;;;;;18.93;61.56;100754.94;5018095;28;19944;-84
2022/06/07 04:08:58;;;;;;;;;;;;;;;18.83;62.04;100760.00;4999747;28;20390;-84
2022/06/07 04:11:27;;;;;;;;;;;;;;;18.93;61.87;100760.38;5000651;28;19917;-87
2022/06/07 04:13:54;;;;;;;;;;;;;;;18.94;61.89;100756.59;5010125;28;19932;-83
2022/06/07 04:16:22;;;;;;;;;;;;;;;18.96;61.67;100762.66;5023837;28;19973;-82
2022/06/07 04:18:48;;;;;;;;;;;;;;;19.07;61.34;100763.91;5022791;28;19980;-83
2022/06/07 04:21:14;;;;;;;;;;;;;;;19.02;61.41;100759.09;5008728;28;20016;-85
2022/06/07 04:23:45;;;;;;;;;;;;;;;19.18;60.84;100750.44;5000189;28;19914;-84
2022/06/07 04:26:11;;;;;;;;;;;;;;;19.21;61.25;100751.91;4998991;28;19981;-82
2022/06/07 04:28:37;;;;;;;;;;;;;;;19.36;60.95;100748.91;5009733;28;20386;-84
2022/06/07 04:31:10;;;;;;;;;;;;;;;19.47;60.67;100744.66;5001879;28;20009;-84
2022/06/07 04:33:35;;;;;;;;;;;;;;;19.57;60.18;100750.47;5004876;28;20039;-86
2022/06/07 04:36:01;;;;;;;;;;;;;;;19.66;59.87;100742.88;4999404;28;20390;-86
2022/06/07 04:38:26;;;;;;;;;;;;;;;19.58;60.21;100747.53;5002982;28;20436;-85
2022/06/07 04:40:53;;;;;;;;;;;;;;;19.72;59.95;100742.88;4984492;28;20351;-87
2022/06/07 04:43:20;;;;;;;;;;;;;;;19.81;59.71;100746.19;4979998;28;19991;-84
2022/06/07 04:45:48;;;;;;;;;;;;;;;19.86;60.05;100743.63;4981710;28;20343;-84
2022/06/07 04:48:21;;;;;;;;;;;;;;;20.01;59.62;100743.31;4986861;28;19948;-84
2022/06/07 04:50:48;;;;;;;;;;;;;;;20.12;59.08;100748.06;5002785;28;19913;-85
2022/06/07 04:53:14;;;;;;;;;;;;;;;20.07;59.10;100749.78;4998022;28;19913;-85
2022/06/07 04:55:40;;;;;;;;;;;;;;;20.00;59.43;100747.94;5008266;28;19972;-83
2022/06/07 04:58:06;;;;;;;;;;;;;;;20.03;59.05;100747.47;5012276;28;20313;-84
2022/06/07 05:00:34;;;;;;;;;;;;;;;20.08;59.21;100754.16;4997022;28;19975;-83
2022/06/07 05:03:01;;;;;;;;;;;;;;;20.03;59.15;100755.66;5004630;28;20020;-85
2022/06/07 05:05:26;;;;;;;;;;;;;;;20.02;59.06;100745.81;5009014;28;19928;-86
2022/06/07 05:07:56;;;;;;;;;;;;;;;19.87;59.19;100758.94;5013838;28;20027;-85
2022/06/07 05:10:25;;;;;;;;;;;;;;;19.74;59.91;100750.84;5000716;28;20297;-85
2022/06/07 05:12:50;;;;;;;;;;;;;;;19.81;59.30;100757.94;5017824;28;20000;-85
2022/06/07 05:15:17;;;;;;;;;;;;;;;19.72;59.42;100761.97;5012353;28;20390;-85
2022/06/07 05:17:42;;;;;;;;;;;;;;;19.82;59.28;100764.22;5021073;28;20031;-84
2022/06/07 05:20:09;;;;;;;;;;;;;;;19.89;59.17;100762.28;4996331;28;20008;-84
2022/06/07 05:22:36;;;;;;;;;;;;;;;19.91;58.90;100757.44;4995865;28;19940;-83
2022/06/07 05:25:02;;;;;;;;;;;;;;;19.73;58.91;100765.53;5010827;28;20560;-87
2022/06/07 05:27:27;;;;;;;;;;;;;;;19.75;58.71;100763.41;5020692;28;19985;-85
2022/06/07 05:29:53;;;;;;;;;;;;;;;19.93;59.02;100763.50;5001301;28;19913;-85
2022/06/07 05:32:21;;;;;;;;;;;;;;;19.94;59.49;100769.81;5002195;28;19925;-85
2022/06/07 05:34:46;;;;;;;;;;;;;;;19.91;59.57;100768.34;5014438;28;20400;-84
2022/06/07 05:37:16;;;;;;;;;;;;;;;19.92;59.12;100774.63;5019444;28;19925;-84
2022/06/07 05:39:41;;;;;;;;;;;;;;;19.95;59.17;100766.03;5002101;28;19918;-84
2022/06/07 05:42:11;;;;;;;;;;;;;;;20.11;59.13;100761.91;5010451;28;19917;-84
2022/06/07 05:44:38;;;;;;;;;;;;;;;20.30;58.69;100762.81;4986691;28;20309;-87
2022/06/07 05:47:05;;;;;;;;;;;;;;;20.43;58.28;100763.53;4985278;28;19917;-93
2022/06/07 05:49:38;;;;;;;;;;;;;;;20.50;58.12;100765.38;5008566;28;19917;-88
2022/06/07 05:52:08;;;;;;;;;;;;;;;20.53;57.68;100757.56;5009363;28;19968;-91
2022/06/07 05:54:34;;;;;;;;;;;;;;;20.90;57.07;100752.19;5020382;28;20159;-89
2022/06/07 05:57:06;;;;;;;;;;;;;;;20.96;56.26;100759.47;4992781;28;19924;-93
2022/06/07 05:59:37;;;;;;;;;;;;;;;20.97;56.21;100754.84;4993873;28;19984;-90
2022/06/07 06:02:06;;;;;;;;;;;;;;;21.03;55.34;100753.94;5013508;28;19928;-90
2022/06/07 06:04:36;;;;;;;;;;;;;;;20.92;55.83;100763.72;5014003;28;19922;-95
2022/06/07 06:07:01;;;;;;;;;;;;;;;21.24;55.63;100758.13;5010930;28;19917;-88
2022/06/07 06:12:11;;;;;;;;;;;;;;;21.27;55.12;100761.22;5015515;28;20321;-88
2022/06/07 06:14:38;;;;;;;;;;;;;;;21.22;54.63;100747.41;5015667;28;19928;-89
2022/06/07 06:17:03;;;;;;;;;;;;;;;21.21;54.99;100750.34;5011974;28;19924;-88
2022/06/07 06:19:33;;;;;;;;;;;;;;;21.31;54.78;100744.38;5013791;28;19981;-86
2022/06/07 06:21:59;;;;;;;;;;;;;;;21.37;54.45;100743.44;5016826;28;19960;-85
2022/06/07 06:24:25;;;;;;;;;;;;;;;21.51;54.49;100744.94;5011335;28;19975;-87
2022/06/07 06:26:54;;;;;;;;;;;;;;;21.61;54.05;100744.38;5010613;28;19929;-84
2022/06/07 06:29:21;;;;;;;;;;;;;;;21.46;53.83;100747.53;5002198;28;19971;-86
2022/06/07 06:31:51;;;;;;;;;;;;;;;21.48;54.13;100742.69;4989794;28;20413;-89
2022/06/07 06:34:16;;;;;;;;;;;;;;;21.59;54.07;100738.34;4973128;28;19924;-89
2022/06/07 06:36:47;;;;;;;;;;;;;;;21.80;53.38;100745.19;4988632;28;19925;-88
2022/06/07 06:39:13;;;;;;;;;;;;;;;21.76;52.98;100752.19;4992251;28;19933;-86
2022/06/07 06:41:41;;;;;;;;;;;;;;;21.95;53.17;100745.59;4973380;28;19918;-89
2022/06/07 06:44:13;;;;;;;;;;;;;;;21.95;52.62;100740.09;4978944;28;19920;-85
2022/06/07 06:46:41;;;;;;;;;;;;;;;22.03;52.81;100737.03;4990676;28;19929;-86
2022/06/07 06:49:11;;;;;;;;;;;;;;;22.58;52.33;100732.34;4984747;28;19918;-88
2022/06/07 06:51:37;;;;;;;;;;;;;;;22.91;51.83;100737.19;4985051;28;19914;-87
2022/06/07 06:54:07;;;;;;;;;;;;;;;22.80;51.71;100733.38;4985419;28;19918;-85
2022/06/07 06:56:33;;;;;;;;;;;;;;;22.93;51.50;100746.84;4986451;28;19922;-88
2022/06/07 06:58:59;;;;;;;;;;;;;;;23.04;49.93;100749.81;4984046;28;19941;-87
2022/06/07 07:01:27;;;;;;;;;;;;;;;23.07;50.15;100746.63;4986957;28;19953;-86
2022/06/07 07:03:53;;;;;;;;;;;;;;;22.91;50.04;100749.00;4993705;28;19933;-88
2022/06/07 07:06:20;;;;;;;;;;;;;;;22.99;49.51;100749.72;4989752;28;19929;-89
2022/06/07 07:08:49;;;;;;;;;;;;;;;22.86;50.31;100757.09;4994201;28;19913;-88
2022/06/07 07:11:19;;;;;;;;;;;;;;;22.90;50.12;100746.50;5003944;28;19914;-89
2022/06/07 07:13:45;;;;;;;;;;;;;;;22.69;49.53;100751.53;4994284;28;19902;-87
2022/06/07 07:16:16;;;;;;;;;;;;;;;22.61;49.39;100756.53;4966726;28;19922;-86
2022/06/07 07:18:41;;;;;;;;;;;;;;;22.53;49.92;100755.81;4993905;28;19921;-86
2022/06/07 07:21:08;;;;;;;;;;;;;;;22.45;49.58;100756.19;5008642;28;19925;-86
2022/06/07 07:23:33;;;;;;;;;;;;;;;22.28;50.28;100758.75;4997441;28;19909;-87
2022/06/07 07:26:04;;;;;;;;;;;;;;;22.29;50.10;100754.16;5007444;28;19905;-87
2022/06/07 07:28:30;;;;;;;;;;;;;;;22.37;50.00;100755.69;5012527;28;20015;-88
2022/06/07 07:30:59;;;;;;;;;;;;;;;22.33;50.64;100767.09;5033018;28;20318;-87
2022/06/07 07:33:27;;;;;;;;;;;;;;;22.29;50.51;100762.34;5035790;28;19979;-87
2022/06/07 07:35:52;;;;;;;;;;;;;;;22.38;51.32;100769.13;5020937;28;19921;-88
2022/06/07 07:38:19;;;;;;;;;;;;;;;22.28;51.83;100766.16;5007691;28;20330;-87
2022/06/07 07:40:45;;;;;;;;;;;;;;;22.16;53.44;100759.78;5017613;28;19917;-88
2022/06/07 07:43:10;;;;;;;;;;;;;;;22.14;53.04;100765.50;5013249;28;19928;-85
2022/06/07 07:45:35;;;;;;;;;;;;;;;22.10;52.95;100765.16;5016873;28;20420;-88
2022/06/07 07:48:01;;;;;;;;;;;;;;;22.14;53.47;100760.03;5032263;28;19913;-88
2022/06/07 07:50:29;;;;;;;;;;;;;;;22.08;52.66;100756.34;5014528;28;19969;-88
2022/06/07 07:52:59;;;;;;;;;;;;;;;22.01;53.23;100765.69;5020672;28;20321;-88
2022/06/07 07:55:24;;;;;;;;;;;;;;;21.83;53.27;100761.13;5016394;28;20293;-87
2022/06/07 07:57:52;;;;;;;;;;;;;;;21.87;53.69;100756.88;5029440;28;19913;-88
2022/06/07 08:00:20;;;;;;;;;;;;;;;21.84;53.90;100755.41;4999785;28;19926;-84
2022/06/07 08:02:46;;;;;;;;;;;;;;;21.66;54.81;100759.06;5023082;28;20407;-88
2022/06/07 08:05:11;;;;;;;;;;;;;;;21.83;54.33;100758.41;5018651;28;20043;-88
2022/06/07 08:07:37;;;;;;;;;;;;;;;21.96;54.38;100758.22;5019872;28;19913;-89
2022/06/07 08:10:04;;;;;;;;;;;;;;;22.04;53.90;100763.34;5012432;28;19976;-88
2022/06/07 08:12:31;;;;;;;;;;;;;;;22.18;53.94;100760.41;5003979;28;19921;-88
2022/06/07 08:14:58;;;;;;;;;;;;;;;22.21;53.44;100757.22;4991688;28;20390;-87
2022/06/07 08:17:23;;;;;;;;;;;;;;;22.19;53.69;100756.56;4986435;28;19917;-89
2022/06/07 08:19:51;;;;;;;;;;;;;;;22.14;54.15;100754.53;5007097;28;19914;-89
2022/06/07 08:22:17;;;;;;;;;;;;;;;22.16;54.31;100754.31;5029379;28;19918;-86
2022/06/07 08:24:43;;;;;;;;;;;;;;;22.09;54.06;100762.63;5010626;28;19964;-86
2022/06/07 08:27:09;;;;;;;;;;;;;;;22.11;53.92;100755.84;5023643;28;19917;-88
2022/06/07 08:29:36;;;;;;;;;;;;;;;22.18;54.48;100755.75;5019274;28;20409;-88
2022/06/07 08:32:02;;;;;;;;;;;;;;;22.22;54.14;100756.13;5009455;28;19917;-89
2022/06/07 08:39:57;;;;;;;;;;;;;;;22.37;53.65;100753.78;4995956;28;20724;-88
2022/06/07 08:42:22;;;;;;;;;;;;;;;22.39;53.52;100754.38;5027092;28;20011;-86
2022/06/07 08:44:52;;;;;;;;;;;;;;;22.23;53.76;100757.81;4995412;28;20389;-90
2022/06/07 08:47:47;;;;;;;;;;;;;;;22.06;54.60;100749.44;5015048;28;19921;-90
2022/06/07 08:50:30;;;;;;;;;;;;;;;22.07;54.81;100742.88;4995692;28;19947;-83
2022/06/07 08:53:22;;;;;;;;;;;;;;;22.07;55.47;100753.81;5020174;28;19917;-91
2022/06/07 08:55:52;;;;;;;;;;;;;;;21.93;55.38;100754.00;4984792;28;20002;-87
2022/06/07 08:58:25;;;;;;;;;;;;;;;22.12;55.04;100756.69;4995564;28;20043;-85
2022/06/07 09:01:12;;;;;;;;;;;;;;;22.34;54.59;100751.53;4990128;28;19921;-85
2022/06/07 09:03:49;;;;;;;;;;;;;;;22.33;54.89;100752.56;5002940;28;19916;-85
2022/06/07 09:06:18;;;;;;;;;;;;;;;22.56;54.69;100746.28;4993997;28;19943;-85
2022/06/07 09:08:46;;;;;;;;;;;;;;;22.75;53.80;100744.25;5001799;28;19917;-86
2022/06/07 09:14:19;;;;;;;;;;;;;;;23.23;51.53;100740.38;5004533;28;19921;-84
2022/06/07 09:16:46;;;;;;;;;;;;;;;23.77;49.93;100748.31;5002191;28;20348;-85
2022/06/07 09:19:14;;;;;;;;;;;;;;;24.50;48.01;100738.31;5005161;28;19928;-86
2022/06/07 09:21:40;;;;;;;;;;;;;;;25.64;45.65;100734.03;5014534;28;19913;-86
2022/06/07 09:24:10;;;;;;;;;;;;;;;26.09;44.38;100737.50;4995869;28;19925;-86
2022/06/07 09:26:37;;;;;;;;;;;;;;;26.07;44.78;100734.16;5002554;28;19914;-85
2022/06/07 09:29:24;;;;;;;;;;;;;;;26.57;44.76;100737.59;5003219;28;19926;-85
2022/06/07 09:31:50;;;;;;;;;;;;;;;26.85;42.46;100744.66;5023264;28;20020;-87
2022/06/07 09:34:21;;;;;;;;;;;;;;;26.60;42.06;100737.91;5019815;28;19925;-89
2022/06/07 09:36:48;;;;;;;;;;;;;;;26.65;42.64;100734.34;5005736;28;20293;-85
2022/06/07 09:39:24;;;;;;;;;;;;;;;26.31;42.98;100735.44;5013607;28;19918;-86
2022/06/07 09:41:54;;;;;;;;;;;;;;;26.99;41.98;100737.56;5003089;28;19925;-90
2022/06/07 09:44:23;;;;;;;;;;;;;;;27.45;41.03;100732.25;4991479;28;20386;-88
2022/06/07 09:46:59;;;;;;;;;;;;;;;27.34;41.36;100725.03;5007976;28;20382;-88
2022/06/07 09:49:34;;;;;;;;;;;;;;;26.91;42.28;100725.13;5004334;28;20369;-88
2022/06/07 09:52:26;;;;;;;;;;;;;;;26.59;43.36;100719.69;5013037;28;20031;-87
2022/06/07 09:54:57;;;;;;;;;;;;;;;25.96;43.94;100722.22;5009667;28;19921;-91
2022/06/07 09:58:02;;;;;;;;;;;;;;;25.69;45.30;100723.06;5011701;28;19917;-88
2022/06/07 10:00:39;;;;;;;;;;;;;;;25.36;45.34;100713.06;5007403;28;20405;-91
2022/06/07 10:03:11;;;;;;;;;;;;;;;25.02;46.09;100715.94;4990080;28;19939;-91
2022/06/07 10:05:37;;;;;;;;;;;;;;;25.10;45.95;100706.41;5015318;28;20028;-90
2022/06/07 10:08:15;;;;;;;;;;;;;;;25.17;45.72;100703.44;5009748;28;19929;-90
2022/06/07 10:10:47;;;;;;;;;;;;;;;24.93;46.48;100703.72;5014330;28;20000;-91
2022/06/07 10:13:31;;;;;;;;;;;;;;;25.00;46.24;100715.34;4992266;28;20432;-92
2022/06/07 10:16:06;;;;;;;;;;;;;;;24.81;45.73;100706.56;5020740;28;19924;-92
2022/06/07 10:18:40;;;;;;;;;;;;;;;24.76;46.41;100702.94;5008229;28;19924;-91
2022/06/07 10:21:12;;;;;;;;;;;;;;;24.85;46.00;100701.41;5043616;28;19967;-91
2022/06/07 10:23:37;;;;;;;;;;;;;;;24.61;46.81;100696.16;5042529;28;19907;-84
2022/06/07 10:26:22;;;;;;;;;;;;;;;24.33;48.21;100694.34;5025077;28;19917;-90
2022/06/07 10:28:53;;;;;;;;;;;;;;;24.40;48.32;100689.50;5038898;28;19928;-89
2022/06/07 10:31:41;;;;;;;;;;;;;;;24.27;48.13;100680.78;5034927;28;19924;-90
2022/06/07 10:34:16;;;;;;;;;;;;;;;24.00;49.33;100684.22;5032525;28;19917;-88
2022/06/07 10:36:45;;;;;;;;;;;;;;;23.95;50.05;100686.84;5032371;28;19985;-90
2022/06/07 10:39:29;;;;;;;;;;;;;;;24.06;49.63;100682.38;5025056;28;19953;-91
2022/06/07 10:42:02;;;;;;;;;;;;;;;24.13;48.75;100672.88;5025000;28;19917;-89
2022/06/07 10:44:36;;;;;;;;;;;;;;;24.29;48.08;100673.13;5014060;28;19996;-89
2022/06/07 10:47:28;;;;;;;;;;;;;;;24.34;47.57;100670.44;5010972;28;20445;-86
2022/06/07 10:50:14;;;;;;;;;;;;;;;24.16;47.55;100671.53;4995206;28;19972;-86
2022/06/07 10:52:41;;;;;;;;;;;;;;;24.14;48.00;100663.56;5015816;28;19993;-90
2022/06/07 10:55:09;;;;;;;;;;;;;;;24.22;47.67;100665.88;5010977;28;19932;-91
2022/06/07 10:57:38;;;;;;;;;;;;;;;24.09;47.94;100665.38;5025599;28;20318;-86
2022/06/07 11:00:15;;;;;;;;;;;;;;;24.21;49.12;100666.97;5013297;28;19917;-91
2022/06/07 11:03:06;;;;;;;;;;;;;;;24.11;49.93;100665.97;5031148;28;19917;-89
2022/06/07 11:11:08;;;;;;;;;;;;;;;24.01;50.54;100655.66;5012872;28;20016;-91
2022/06/07 11:13:57;;;;;;;;;;;;;;;24.15;49.95;100653.41;5000567;28;19932;-89
2022/06/07 11:16:38;;;;;;;;;;;;;;;24.51;49.61;100645.69;5002079;28;20352;-92
2022/06/07 11:19:05;;;;;;;;;;;;;;;24.60;47.89;100635.94;5004000;28;19917;-92
2022/06/07 11:21:38;;;;;;;;;;;;;;;24.62;47.36;100647.50;5003191;28;19969;-92
2022/06/07 11:24:06;;;;;;;;;;;;;;;24.71;48.07;100643.22;5042470;28;19910;-91
2022/06/07 11:26:50;;;;;;;;;;;;;;;25.24;46.78;100629.84;5019144;28;19932;-94
2022/06/07 11:29:20;;;;;;;;;;;;;;;25.71;46.07;100634.69;5023176;28;19943;-91
2022/06/07 11:31:46;;;;;;;;;;;;;;;25.98;45.19;100625.56;5013422;28;19938;-92
2022/06/07 11:34:12;;;;;;;;;;;;;;;26.72;43.19;100616.38;5042074;28;20363;-91
2022/06/07 11:36:40;;;;;;;;;;;;;;;26.89;42.50;100625.25;5037357;28;19964;-89
2022/06/07 11:39:21;;;;;;;;;;;;;;;26.62;42.70;100610.81;5012700;28;19960;-90
2022/06/07 11:41:47;;;;;;;;;;;;;;;26.33;44.60;100619.44;5010434;28;19914;-92
2022/06/07 11:44:26;;;;;;;;;;;;;;;26.36;44.04;100610.63;5010101;28;19921;-86
2022/06/07 11:46:51;;;;;;;;;;;;;;;26.38;43.78;100611.22;5017468;28;20036;-88
2022/06/07 11:49:26;;;;;;;;;;;;;;;25.96;44.89;100619.50;5003073;28;20354;-86
2022/06/07 11:52:06;;;;;;;;;;;;;;;25.39;49.48;100607.97;5025112;28;19917;-89
2022/06/07 11:54:50;;;;;;;;;;;;;;;25.12;53.56;100598.88;5002831;28;19917;-90
2022/06/07 11:57:35;;;;;;;;;;;;;;;25.03;55.06;100612.28;5016785;28;19922;-89
2022/06/07 12:00:19;;;;;;;;;;;;;;;24.93;56.06;100610.22;5018171;28;20333;-89
2022/06/07 12:02:56;;;;;;;;;;;;;;;24.58;54.33;100607.88;5023418;28;19917;-87
2022/06/07 12:05:36;;;;;;;;;;;;;;;24.33;56.16;100600.94;5017858;28;20387;-89
2022/06/07 12:08:10;;;;;;;;;;;;;;;24.27;57.48;100609.34;5020056;28;19922;-89
2022/06/07 12:10:38;;;;;;;;;;;;;;;24.21;57.11;100609.28;4981878;28;19992;-86
2022/06/07 12:13:06;;;;;;;;;;;;;;;24.37;58.83;100606.72;5019001;28;20376;-89
2022/06/07 12:15:37;;;;;;;;;;;;;;;24.50;55.22;100597.34;5016955;28;19921;-90
2022/06/07 12:18:30;;;;;;;;;;;;;;;24.47;55.74;100595.94;5011394;28;19917;-88
2022/06/07 12:21:06;;;;;;;;;;;;;;;24.42;54.23;100593.09;5006513;28;19940;-85
2022/06/07 12:23:34;;;;;;;;;;;;;;;24.59;54.21;100587.56;5008135;28;19917;-87
2022/06/07 12:26:06;;;;;;;;;;;;;;;24.66;54.47;100579.13;5041532;28;19908;-89
2022/06/07 12:28:34;;;;;;;;;;;;;;;24.72;52.76;100580.81;5012280;28;20004;-86
2022/06/07 12:31:13;;;;;;;;;;;;;;;25.06;53.02;100576.81;4995075;28;20060;-87
2022/06/07 12:33:40;;;;;;;;;;;;;;;24.99;53.20;100573.44;5008779;28;19922;-86
2022/06/07 12:36:23;;;;;;;;;;;;;;;24.65;51.72;100564.53;5018280;28;19918;-86
2022/06/07 12:38:49;;;;;;;;;;;;;;;24.10;53.83;100574.50;5011223;28;19952;-86
2022/06/07 12:41:17;;;;;;;;;;;;;;;24.34;54.75;100571.53;5021547;28;19960;-87
2022/06/07 12:43:49;;;;;;;;;;;;;;;24.09;53.97;100569.25;4981189;28;19921;-91
2022/06/07 12:46:28;;;;;;;;;;;;;;;24.34;55.03;100580.59;5010100;28;19921;-91
2022/06/07 12:48:55;;;;;;;;;;;;;;;24.43;53.84;100575.50;5009018;28;20310;-91
2022/06/07 12:51:41;;;;;;;;;;;;;;;24.90;52.59;100577.75;5037584;28;19959;-92
2022/06/07 12:54:17;;;;;;;;;;;;;;;25.05;52.50;100575.16;5018427;28;20066;-87
2022/06/07 12:56:44;;;;;;;;;;;;;;;25.18;51.64;100567.63;5007045;28;19948;-85
2022/06/07 12:59:24;;;;;;;;;;;;;;;24.93;51.79;100565.38;5004514;28;19917;-85
2022/06/07 13:01:50;;;;;;;;;;;;;;;24.75;52.97;100561.91;5018519;28;19924;-84
2022/06/07 13:04:22;;;;;;;;;;;;;;;24.65;53.04;100548.03;5010905;28;19917;-85
2022/06/07 13:07:00;;;;;;;;;;;;;;;24.79;52.08;100553.97;5027676;28;19921;-85
2022/06/07 13:09:26;;;;;;;;;;;;;;;24.56;53.24;100560.56;5008026;28;19995;-85
2022/06/07 13:11:56;;;;;;;;;;;;;;;24.28;54.08;100565.16;5004696;28;20389;-83
2022/06/07 13:14:22;;;;;;;;;;;;;;;23.86;54.65;100567.53;4997583;28;20374;-87